Casper-Natrona County International Airport

Airport
ICAO code: 
KCPR
Summary
ICAO Region: 
NAM
Territory: 
Location: 
Casper, Wyoming,
Elevation: 
5350 ft
Coordinates: 
Aerial View: 
42° 53' 50.937" N, 106° 27' 51.403" W
Airport CFIT: 
Altimeter Temperature Error Correction
Airport RE: 
Hot and High Operations
Metar
Observation
KCPR 021553Z 21021G31KT 10SM CLR 10/M02 A3010 RMK AO2 PK WND 21031/1546 SLP165 T01001017
Station
Casper, Natrona County International Airport
Date/Time
2021-12-02 15:53:00
Wind direction
210°
Wind speed
21 kts
Lowest cloud amount
n/a
Temperature
10°C
Dew point
-1.7°C
Humidity
43%
Weather condition
n/a

Description

Casper–Natrona County International Airport is a public use airport located 11 km northwest of the central business district of Casper, a city in Natrona County, Wyoming.

Climatology

Semi-arid climate (Köppen climate classification BSk). - Hot, sometimes extremely hot summers and cold, sometimes very cold winters. Some snowfall during the winter. Areas featuring cold semi-arid climates are sometimes subject to major temperature swings during a 24 hour period.

Runways

Designator Length Width Surface Rops
12/30 1976 18 ASP Yes/Yes
17/35 2346 18 ASP Yes/Yes
8/26 2645 46 ASP Yes/Yes
3/21 3098 46 ASP Yes/Yes
Airport map: 
Aerial View: 

SKYbrary Partners:

Safety knowledge contributed by: